This is the latest recevied weather packets stored in our database for station/object EA1IOK-13. If no packets are shown the sender has not sent any weather packets the latest 1 day(s).
| Time | Temp. | Humidity | Pressure | Rain* | Wind** | Luminosity | Snow |
|---|---|---|---|---|---|---|---|
| 1777997200 | 15.56° C | 75% | 1014.6 hPa | 0 mm | 2.68 m/s, 314° | - | - |
| 1777997151 | 15.56° C | 75% | 1014.6 hPa | 0 mm | 2.68 m/s, 314° | - | - |
| 1777996249 | 14.44° C | 78% | 1014.6 hPa | 0 mm | 2.68 m/s, 350° | - | - |
| 1777995350 | 15° C | 79% | 1014.8 hPa | 0 mm | 1.34 m/s, 328° | - | - |
| 1777993667 | 13.89° C | 83% | 1014.9 hPa | 0 mm | 4.02 m/s, 323° | - | - |
| 1777993550 | 13.89° C | 83% | 1014.9 hPa | 0 mm | 4.02 m/s, 323° | - | - |
| 1777991843 | 15° C | 74% | 1014.7 hPa | 0 mm | 2.24 m/s, 284° | - | - |
| 1777991749 | 15° C | 74% | 1014.7 hPa | 0 mm | 2.24 m/s, 284° | - | - |
| 1777989949 | 14.44° C | 76% | 1015 hPa | 0 mm | 0.89 m/s, 304° | - | - |
| 1777989092 | 14.44° C | 76% | 1014.9 hPa | 0.25 mm | 0.89 m/s, 298° | - | - |
| 1777989050 | 14.44° C | 76% | 1014.9 hPa | 0.25 mm | 0.89 m/s, 298° | - | - |
| 1777985449 | 13.33° C | 91% | 1015 hPa | 0 mm | 0.45 m/s, 219° | - | - |
| 1777982749 | 12.22° C | 87% | 1015.1 hPa | 0.25 mm | 1.34 m/s, 152° | - | - |
| 1777981896 | 12.22° C | 89% | 1015.3 hPa | 0.25 mm | 0.89 m/s, 176° | - | - |
| 1777981853 | 12.22° C | 89% | 1015.3 hPa | 0.25 mm | 0.89 m/s, 176° | - | - |
| 1777980963 | 11.11° C | 89% | 1015.4 hPa | 0.51 mm | 1.34 m/s, 247° | - | - |
| 1777980049 | 12.22° C | 89% | 1015.4 hPa | 0.25 mm | 2.24 m/s, 172° | - | - |
| 1777979195 | 11.67° C | 91% | 1015.4 hPa | 0.25 mm | 1.34 m/s, 183° | - | - |
| 1777979151 | 11.67° C | 91% | 1015.4 hPa | 0.25 mm | 1.34 m/s, 183° | - | - |
| 1777978295 | 11.11° C | 89% | 1015.5 hPa | 0.25 mm | 0.45 m/s, 301° | - | - |
| 1777978250 | 11.11° C | 89% | 1015.5 hPa | 0.25 mm | 0.45 m/s, 301° | - | - |
| 1777977403 | 11.11° C | 90% | 1015.7 hPa | 0 mm | 0.89 m/s, 249° | - | - |
| 1777977350 | 11.11° C | 90% | 1015.7 hPa | 0 mm | 0.89 m/s, 249° | - | - |
| 1777975583 | 10.56° C | 95% | 1015.5 hPa | 0 mm | 0.45 m/s, 204° | - | - |
| 1777975550 | 10.56° C | 95% | 1015.5 hPa | 0 mm | 0.45 m/s, 204° | - | - |
* Rain latest hour (hover to see other rain measurements)
** Current wind speed in m/s (hover to see current wind gust speed)